createdAt,value
2016-12-26T00:00:30.390Z,9.36
2016-12-26T00:01:18.747Z,9.29
2016-12-26T00:02:07.344Z,9.26
2016-12-26T00:02:56.063Z,9.32
2016-12-26T00:03:45.062Z,9.22
2016-12-26T00:04:33.305Z,9.34
2016-12-26T00:05:22.102Z,9.31
2016-12-26T00:07:43.437Z,9.34
2016-12-26T00:08:30.732Z,9.32
2016-12-26T00:09:19.941Z,9.32
2016-12-26T00:10:08.515Z,9.32
2016-12-26T00:10:56.965Z,9.26
2016-12-26T00:11:45.489Z,9.34
2016-12-26T00:12:34.383Z,9.31
2016-12-26T00:13:22.903Z,9.25
2016-12-26T00:14:11.579Z,9.31
2016-12-26T00:15:00.311Z,9.23
2016-12-26T00:15:49.354Z,9.28
2016-12-26T00:16:37.550Z,9.34
2016-12-26T00:17:26.197Z,9.25
2016-12-26T00:18:15.396Z,9.31
2016-12-26T00:19:03.820Z,9.31
2016-12-26T00:19:52.129Z,9.34
2016-12-26T00:20:40.877Z,9.29
2016-12-26T00:21:29.653Z,9.29
2016-12-26T00:22:17.959Z,9.34
2016-12-26T00:23:06.665Z,9.28
2016-12-26T00:23:55.331Z,9.36
2016-12-26T00:24:43.959Z,9.25
2016-12-26T00:25:32.565Z,9.22
2016-12-26T00:26:21.453Z,9.32
2016-12-26T00:27:10.009Z,9.19
2016-12-26T00:27:58.637Z,9.31
2016-12-26T00:28:47.795Z,9.29
2016-12-26T00:29:36.072Z,9.29
2016-12-26T00:30:25.051Z,9.4
2016-12-26T00:31:13.523Z,9.29
2016-12-26T00:32:01.949Z,9.26
2016-12-26T00:32:50.815Z,9.31
2016-12-26T00:33:39.241Z,9.29
2016-12-26T00:34:27.867Z,9.29
2016-12-26T00:35:16.417Z,9.31
2016-12-26T00:36:05.265Z,9.31
2016-12-26T00:36:53.666Z,9.26
2016-12-26T00:37:42.433Z,9.31
2016-12-26T00:38:31.144Z,9.23
2016-12-26T00:39:19.519Z,9.34
2016-12-26T00:40:08.637Z,9.31
2016-12-26T00:40:57.256Z,9.22
2016-12-26T00:41:43.395Z,9.36
2016-12-26T00:42:26.245Z,9.29
2016-12-26T00:43:09.335Z,9.21
2016-12-26T00:43:49.826Z,9.18
2016-12-26T00:44:30.823Z,9.26
2016-12-26T00:45:11.290Z,9.32
2016-12-26T00:45:51.766Z,9.22
2016-12-26T00:46:32.262Z,9.32
2016-12-26T00:48:50.124Z,9.34
2016-12-26T00:49:39.068Z,9.26
2016-12-26T00:50:27.066Z,9.28
2016-12-26T00:51:16.161Z,9.29
2016-12-26T00:52:04.403Z,9.29
2016-12-26T00:52:53.467Z,9.25
2016-12-26T00:53:41.917Z,9.29
2016-12-26T00:54:29.198Z,9.31
2016-12-26T00:55:17.833Z,9.31
2016-12-26T00:56:06.571Z,9.28
2016-12-26T00:56:55.122Z,9.29
2016-12-26T00:57:43.765Z,9.28
2016-12-26T00:58:32.312Z,9.34
2016-12-26T00:59:21.238Z,9.31
2016-12-26T01:00:10.161Z,9.32
2016-12-26T01:00:58.837Z,9.36
2016-12-26T01:01:47.517Z,9.29
2016-12-26T01:02:36.106Z,9.28
2016-12-26T01:03:24.417Z,9.4
2016-12-26T01:04:13.273Z,9.39
2016-12-26T01:05:01.736Z,9.32
2016-12-26T01:05:50.482Z,9.37
2016-12-26T01:06:39.377Z,9.36
2016-12-26T01:07:27.763Z,9.29
2016-12-26T01:08:16.598Z,9.32
2016-12-26T01:09:05.100Z,9.31
2016-12-26T01:09:54.026Z,9.29
2016-12-26T01:10:42.423Z,9.31
2016-12-26T01:11:31.153Z,9.34
2016-12-26T01:12:19.443Z,9.34
2016-12-26T01:13:08.131Z,9.41
2016-12-26T01:13:56.529Z,9.29
2016-12-26T01:14:45.494Z,9.4
2016-12-26T01:15:34.075Z,9.37
2016-12-26T01:16:22.916Z,9.39
2016-12-26T01:17:11.419Z,9.37
2016-12-26T01:17:59.809Z,9.39
2016-12-26T01:18:48.536Z,9.37
2016-12-26T01:19:37.136Z,9.4
2016-12-26T01:20:25.890Z,9.29
2016-12-26T01:21:14.474Z,9.34
2016-12-26T01:22:03.228Z,9.31
2016-12-26T01:22:49.541Z,9.4
2016-12-26T01:23:30.670Z,9.4
2016-12-26T01:24:13.490Z,9.36
2016-12-26T01:24:54.059Z,9.32
2016-12-26T01:25:35.160Z,9.44
2016-12-26T01:26:19.394Z,9.32
2016-12-26T01:26:59.891Z,9.34
2016-12-26T01:27:40.338Z,9.34
2016-12-26T01:28:20.824Z,9.34
2016-12-26T01:29:02.311Z,9.32
2016-12-26T01:29:43.661Z,9.36
2016-12-26T01:30:24.842Z,9.29
2016-12-26T01:31:05.936Z,9.4
2016-12-26T01:31:47.430Z,9.39
2016-12-26T01:32:30.424Z,9.31
2016-12-26T01:33:10.902Z,9.23
2016-12-26T01:33:51.359Z,9.37
2016-12-26T01:34:31.908Z,9.39
2016-12-26T01:35:12.331Z,9.32
2016-12-26T01:35:53.674Z,9.32
2016-12-26T01:36:34.165Z,9.37
2016-12-26T01:37:14.583Z,9.34
2016-12-26T01:37:55.119Z,9.36
2016-12-26T01:38:36.545Z,9.36
2016-12-26T01:39:17.603Z,9.36
2016-12-26T01:39:58.602Z,9.36
2016-12-26T01:40:39.129Z,9.37
2016-12-26T01:41:19.586Z,9.32
2016-12-26T01:42:02.528Z,9.32
2016-12-26T01:42:42.967Z,9.36
2016-12-26T01:43:25.122Z,9.36
2016-12-26T01:44:05.547Z,9.34
2016-12-26T01:44:46.924Z,9.39
2016-12-26T01:45:27.393Z,9.34
2016-12-26T01:46:08.701Z,9.31
2016-12-26T01:46:49.153Z,9.39
2016-12-26T01:47:30.434Z,9.39
2016-12-26T01:48:10.899Z,9.36
2016-12-26T01:48:51.375Z,9.29
2016-12-26T01:49:31.889Z,9.36
2016-12-26T01:50:14.020Z,9.39
2016-12-26T01:50:54.502Z,9.39
2016-12-26T01:51:34.908Z,9.43
2016-12-26T01:52:15.985Z,9.39
2016-12-26T01:52:56.475Z,9.41
2016-12-26T01:53:37.510Z,9.41
2016-12-26T01:54:18.004Z,9.43
2016-12-26T01:54:58.472Z,9.39
2016-12-26T01:55:40.680Z,9.39
2016-12-26T01:56:22.230Z,9.43
2016-12-26T01:57:03.423Z,9.41
2016-12-26T01:57:45.661Z,9.44
2016-12-26T01:58:27.011Z,9.41
2016-12-26T02:00:44.340Z,9.34
2016-12-26T02:01:33.356Z,9.37
2016-12-26T02:02:22.345Z,9.4
2016-12-26T02:03:11.269Z,9.34
2016-12-26T02:03:59.607Z,9.39
2016-12-26T02:04:48.318Z,9.4
2016-12-26T02:05:37.185Z,9.43
2016-12-26T02:06:26.558Z,9.34
2016-12-26T02:07:15.070Z,9.37
2016-12-26T02:08:03.033Z,9.43
2016-12-26T02:08:49.261Z,9.41
2016-12-26T02:09:37.703Z,9.39
2016-12-26T02:10:26.763Z,9.41
2016-12-26T02:11:15.241Z,9.39
2016-12-26T02:12:04.071Z,9.34
2016-12-26T02:12:52.299Z,9.37
2016-12-26T02:13:41.229Z,9.29
2016-12-26T02:14:29.618Z,9.34
2016-12-26T02:15:18.321Z,9.37
2016-12-26T02:16:07.194Z,9.31
2016-12-26T02:16:55.630Z,9.29
2016-12-26T02:17:44.111Z,9.31
2016-12-26T02:18:32.603Z,9.31
2016-12-26T02:19:21.683Z,9.22
2016-12-26T02:20:10.453Z,9.25
2016-12-26T02:20:58.922Z,9.31
2016-12-26T02:21:47.728Z,9.26
2016-12-26T02:22:35.919Z,9.23
2016-12-26T02:23:24.637Z,9.28
2016-12-26T02:25:46.025Z,9.19
2016-12-26T02:26:32.721Z,9.28
2016-12-26T02:27:21.272Z,9.22
2016-12-26T02:28:10.124Z,9.26
2016-12-26T02:28:58.725Z,9.26
2016-12-26T02:29:47.483Z,9.21
2016-12-26T02:30:36.391Z,9.28
2016-12-26T02:31:24.753Z,9.25
2016-12-26T02:32:13.143Z,9.25
2016-12-26T02:33:01.869Z,9.18
2016-12-26T02:33:50.794Z,9.28
2016-12-26T02:34:39.245Z,9.14
2016-12-26T02:35:27.975Z,9.22
2016-12-26T02:36:17.195Z,9.13
2016-12-26T02:37:05.495Z,9.21
2016-12-26T02:37:54.380Z,9.22
2016-12-26T02:38:42.781Z,9.22
2016-12-26T02:39:31.478Z,9.18
2016-12-26T02:40:20.059Z,9.23
2016-12-26T02:41:08.716Z,9.18
2016-12-26T02:41:57.254Z,9.22
2016-12-26T02:42:46.077Z,9.18
2016-12-26T02:43:34.568Z,9.23
2016-12-26T02:44:23.089Z,9.23
2016-12-26T02:45:12.442Z,9.19
2016-12-26T02:46:01.884Z,9.25
2016-12-26T02:46:50.186Z,9.26
2016-12-26T02:48:41.397Z,9.29
2016-12-26T02:49:30.076Z,9.22
2016-12-26T02:50:19.065Z,9.28
2016-12-26T02:51:07.143Z,9.28
2016-12-26T02:51:56.324Z,9.25
2016-12-26T02:52:44.827Z,9.28
2016-12-26T02:53:32.035Z,9.26
2016-12-26T02:54:19.696Z,9.29
2016-12-26T02:55:08.351Z,9.29
2016-12-26T02:55:57.419Z,9.26
2016-12-26T02:56:46.070Z,9.25
2016-12-26T02:57:34.536Z,9.26
2016-12-26T02:58:22.852Z,9.31
2016-12-26T02:59:11.620Z,9.34
2016-12-26T03:00:00.574Z,9.29
2016-12-26T03:00:49.028Z,9.32
2016-12-26T03:01:37.514Z,9.26
2016-12-26T03:02:26.438Z,9.29
2016-12-26T03:03:14.766Z,9.25
2016-12-26T03:04:03.300Z,9.29
2016-12-26T03:04:52.120Z,9.32
2016-12-26T03:05:40.746Z,9.36
2016-12-26T03:06:29.243Z,9.29
2016-12-26T03:07:18.368Z,9.26
2016-12-26T03:08:06.722Z,9.31
2016-12-26T03:08:55.102Z,9.21
2016-12-26T03:09:43.684Z,9.31
2016-12-26T03:10:33.017Z,9.26
2016-12-26T03:11:21.036Z,9.25
2016-12-26T03:12:09.944Z,9.25
2016-12-26T03:12:58.546Z,9.31
2016-12-26T03:13:47.368Z,9.26
2016-12-26T03:14:35.762Z,9.29
2016-12-26T03:15:24.614Z,9.36
2016-12-26T03:16:13.230Z,9.22
2016-12-26T03:16:59.701Z,9.28
2016-12-26T03:17:40.002Z,9.31
2016-12-26T03:18:20.501Z,9.25
2016-12-26T03:19:01.014Z,9.23
2016-12-26T03:19:42.504Z,9.22
2016-12-26T03:20:23.055Z,9.25
2016-12-26T03:21:05.131Z,9.25
2016-12-26T03:21:46.179Z,9.25
2016-12-26T03:22:27.191Z,9.29
2016-12-26T03:23:08.554Z,9.29
2016-12-26T03:23:50.434Z,9.29
2016-12-26T03:24:32.445Z,9.29
2016-12-26T03:25:14.423Z,9.26
2016-12-26T03:25:54.929Z,9.25
2016-12-26T03:26:35.363Z,9.28
2016-12-26T03:27:15.846Z,9.26
2016-12-26T03:27:57.110Z,9.28
2016-12-26T03:28:39.101Z,9.26
2016-12-26T03:29:20.467Z,9.29
2016-12-26T03:30:00.905Z,9.29
2016-12-26T03:30:43.009Z,9.31
2016-12-26T03:31:24.055Z,9.25
2016-12-26T03:32:09.950Z,9.25
2016-12-26T03:32:51.323Z,9.28
2016-12-26T03:33:31.857Z,9.28
2016-12-26T03:34:13.033Z,9.25
2016-12-26T03:34:53.490Z,9.26
2016-12-26T03:35:33.942Z,9.28
2016-12-26T03:36:15.098Z,9.22
2016-12-26T03:36:56.104Z,9.28
2016-12-26T03:37:37.475Z,9.22
2016-12-26T03:38:17.927Z,9.25
2016-12-26T03:38:58.417Z,9.18
2016-12-26T03:39:39.700Z,9.31
2016-12-26T03:40:20.860Z,9.29
2016-12-26T03:41:01.351Z,9.28
2016-12-26T03:41:41.815Z,9.25
2016-12-26T03:42:22.309Z,9.25
2016-12-26T03:43:02.787Z,9.25
2016-12-26T03:43:43.259Z,9.28
2016-12-26T03:44:23.767Z,9.28
2016-12-26T03:45:04.264Z,9.28
2016-12-26T03:45:45.712Z,9.23
2016-12-26T03:46:26.212Z,9.21
2016-12-26T03:47:07.191Z,9.26
2016-12-26T03:47:47.693Z,9.21
2016-12-26T03:48:28.125Z,9.23
2016-12-26T03:49:08.621Z,9.31
2016-12-26T03:49:49.102Z,9.25
2016-12-26T03:50:34.975Z,9.21
2016-12-26T03:51:16.198Z,9.26
2016-12-26T03:51:56.705Z,9.19
2016-12-26T03:52:38.943Z,9.23
2016-12-26T03:53:19.383Z,9.25
2016-12-26T03:53:59.900Z,9.28
2016-12-26T03:54:40.378Z,9.29
2016-12-26T03:55:20.828Z,9.26
2016-12-26T03:56:02.250Z,9.19
2016-12-26T03:56:42.724Z,9.14
2016-12-26T03:57:24.475Z,9.22
2016-12-26T03:58:04.923Z,9.21
2016-12-26T03:58:49.119Z,9.23
2016-12-26T03:59:30.311Z,9.22
2016-12-26T04:00:11.450Z,9.19
2016-12-26T04:00:52.724Z,9.22
2016-12-26T04:01:33.165Z,9.23
2016-12-26T04:02:13.651Z,9.22
2016-12-26T04:02:55.016Z,9.18
2016-12-26T04:03:37.048Z,9.22
2016-12-26T04:04:17.498Z,9.19
2016-12-26T04:04:59.696Z,9.18
2016-12-26T04:05:40.182Z,9.23
2016-12-26T04:06:21.612Z,9.22
2016-12-26T04:07:04.661Z,9.22
2016-12-26T04:07:45.156Z,9.23
2016-12-26T04:08:26.317Z,9.18
2016-12-26T04:09:06.837Z,9.16
2016-12-26T04:09:49.146Z,9.22
2016-12-26T04:10:29.661Z,9.16
2016-12-26T04:11:10.951Z,9.21
2016-12-26T04:11:51.548Z,9.14
2016-12-26T04:12:32.017Z,9.16
2016-12-26T04:13:13.219Z,9.14
2016-12-26T04:13:53.714Z,9.11
2016-12-26T04:14:34.732Z,9.16
2016-12-26T04:15:16.126Z,9.22
2016-12-26T04:15:56.643Z,9.19
2016-12-26T04:16:37.923Z,9.08
2016-12-26T04:17:18.457Z,9.13
2016-12-26T04:17:58.918Z,9.1
2016-12-26T04:18:39.435Z,9.11
2016-12-26T04:19:19.899Z,9.04
2016-12-26T04:20:00.415Z,9.03
2016-12-26T04:20:40.836Z,9.02
2016-12-26T04:21:21.419Z,8.94
2016-12-26T04:22:01.865Z,8.78
2016-12-26T04:22:42.342Z,8.78
2016-12-26T04:23:22.853Z,8.67
2016-12-26T04:24:03.311Z,8.6
2016-12-26T04:24:43.793Z,8.55
2016-12-26T04:25:24.327Z,8.46
2016-12-26T04:26:04.800Z,8.48
2016-12-26T04:26:45.323Z,8.45
2016-12-26T04:27:25.799Z,8.41
2016-12-26T04:28:06.269Z,8.26
2016-12-26T04:28:46.799Z,8.33
2016-12-26T04:29:27.272Z,8.38
2016-12-26T04:30:07.734Z,8.27
2016-12-26T04:30:48.232Z,8.23
2016-12-26T04:31:28.725Z,8.2
2016-12-26T04:32:09.263Z,8.23
2016-12-26T04:32:49.689Z,8.18
2016-12-26T04:33:30.114Z,8.12
2016-12-26T04:34:10.662Z,8.1
2016-12-26T04:34:51.160Z,8.08
2016-12-26T04:35:31.675Z,8.05
2016-12-26T04:36:12.127Z,8.08
2016-12-26T04:36:52.627Z,8.06
2016-12-26T04:37:33.125Z,8.06
2016-12-26T04:38:13.577Z,8
2016-12-26T04:38:54.089Z,8.03
2016-12-26T04:39:34.646Z,8
2016-12-26T04:40:15.115Z,8
2016-12-26T04:40:55.619Z,8
2016-12-26T04:41:36.096Z,8.03
2016-12-26T04:42:16.600Z,8.01
2016-12-26T04:42:57.064Z,8.05
2016-12-26T04:43:37.518Z,8.03
2016-12-26T04:44:18.008Z,8
2016-12-26T04:44:58.472Z,7.95
2016-12-26T04:45:38.970Z,8.03
2016-12-26T04:46:19.423Z,7.91
2016-12-26T04:46:59.915Z,7.9
2016-12-26T04:47:40.963Z,7.95
2016-12-26T04:48:21.395Z,7.97
2016-12-26T04:49:01.890Z,7.94
2016-12-26T04:49:42.360Z,7.9
2016-12-26T04:50:22.846Z,7.9
2016-12-26T04:51:03.291Z,7.95
2016-12-26T04:51:43.781Z,7.9
2016-12-26T04:52:24.304Z,7.87
2016-12-26T04:53:04.800Z,8.05
2016-12-26T04:53:45.950Z,7.95
2016-12-26T04:54:26.439Z,8
2016-12-26T04:55:06.958Z,7.88
2016-12-26T04:55:47.369Z,7.97
2016-12-26T04:56:27.847Z,7.91
2016-12-26T04:57:11.666Z,8
2016-12-26T04:57:53.539Z,7.95
2016-12-26T04:58:34.009Z,7.98
2016-12-26T04:59:15.446Z,7.8
2016-12-26T04:59:55.934Z,7.82
2016-12-26T05:00:36.416Z,7.95
2016-12-26T05:01:17.425Z,7.83
2016-12-26T05:01:57.946Z,7.8
2016-12-26T05:02:38.397Z,7.8
2016-12-26T05:03:18.876Z,7.77
2016-12-26T05:03:59.420Z,7.85
2016-12-26T05:04:40.803Z,7.79
2016-12-26T05:05:22.034Z,7.8
2016-12-26T05:06:05.935Z,7.82
2016-12-26T05:06:46.438Z,7.79
2016-12-26T05:07:27.455Z,7.75
2016-12-26T05:08:08.661Z,7.73
2016-12-26T05:08:50.711Z,7.67
2016-12-26T05:09:32.182Z,7.72
2016-12-26T05:10:12.624Z,7.76
2016-12-26T05:10:53.111Z,7.7
2016-12-26T05:11:33.593Z,7.61
2016-12-26T05:12:14.048Z,7.66
2016-12-26T05:12:55.448Z,7.73
2016-12-26T05:13:36.599Z,7.67
2016-12-26T05:14:18.046Z,7.6
2016-12-26T05:14:58.524Z,7.66
2016-12-26T05:15:39.001Z,7.61
2016-12-26T05:16:21.949Z,7.54
2016-12-26T05:17:04.011Z,7.54
2016-12-26T05:17:44.553Z,7.5
2016-12-26T05:18:25.052Z,7.56
2016-12-26T05:19:05.532Z,7.48
2016-12-26T05:19:47.817Z,7.5
2016-12-26T05:20:28.304Z,7.43
2016-12-26T05:21:09.461Z,7.47
2016-12-26T05:21:50.434Z,7.47
2016-12-26T05:22:30.933Z,7.51
2016-12-26T05:23:11.428Z,7.43
2016-12-26T05:23:51.955Z,7.45
2016-12-26T05:24:32.384Z,7.48
2016-12-26T05:25:13.426Z,7.45
2016-12-26T05:25:53.942Z,7.45
2016-12-26T05:26:34.393Z,7.42
2016-12-26T05:27:14.885Z,7.47
2016-12-26T05:27:56.325Z,7.43
2016-12-26T05:28:39.385Z,7.48
2016-12-26T05:29:19.903Z,7.48
2016-12-26T05:30:00.399Z,7.42
2016-12-26T05:30:40.892Z,7.48
2016-12-26T05:31:21.528Z,7.51
2016-12-26T05:32:02.015Z,7.47
2016-12-26T05:32:42.514Z,7.43
2016-12-26T05:33:23.521Z,7.4
2016-12-26T05:34:05.534Z,7.39
2016-12-26T05:34:46.053Z,7.43
2016-12-26T05:35:26.550Z,7.5
2016-12-26T05:36:07.842Z,7.42
2016-12-26T05:36:48.348Z,7.45
2016-12-26T05:37:28.828Z,7.38
2016-12-26T05:38:09.365Z,7.38
2016-12-26T05:38:49.765Z,7.39
2016-12-26T05:39:30.836Z,7.39
2016-12-26T05:40:11.334Z,7.35
2016-12-26T05:40:51.802Z,7.39
2016-12-26T05:41:32.293Z,7.43
2016-12-26T05:42:12.770Z,7.38
2016-12-26T05:42:53.234Z,7.39
2016-12-26T05:43:33.758Z,7.38
2016-12-26T05:44:14.225Z,7.39
2016-12-26T05:44:56.632Z,7.43
2016-12-26T05:45:37.107Z,7.39
2016-12-26T05:46:18.354Z,7.45
2016-12-26T05:46:58.819Z,7.35
2016-12-26T05:47:39.427Z,7.42
2016-12-26T05:48:19.965Z,7.42
2016-12-26T05:49:00.421Z,7.36
2016-12-26T05:49:40.926Z,7.4
2016-12-26T05:50:22.949Z,7.36
2016-12-26T05:51:03.447Z,7.35
2016-12-26T05:51:43.955Z,7.4
2016-12-26T05:52:25.948Z,7.39
2016-12-26T05:53:07.068Z,7.36
2016-12-26T05:53:48.934Z,7.35
2016-12-26T05:54:30.347Z,7.45
2016-12-26T05:55:12.443Z,7.42
2016-12-26T05:55:53.453Z,7.43
2016-12-26T05:56:34.540Z,7.45
2016-12-26T05:57:15.019Z,7.42
2016-12-26T05:57:57.033Z,7.35
2016-12-26T05:58:38.380Z,7.38
2016-12-26T05:59:18.822Z,7.4
2016-12-26T06:00:03.458Z,7.39
2016-12-26T06:00:46.439Z,7.38
2016-12-26T06:01:27.609Z,7.38
2016-12-26T06:02:08.104Z,7.32
2016-12-26T06:02:48.603Z,7.38
2016-12-26T06:03:29.631Z,7.38
2016-12-26T06:04:10.719Z,7.36
2016-12-26T06:04:51.968Z,7.35
2016-12-26T06:05:32.438Z,7.33
2016-12-26T06:06:12.902Z,7.33
2016-12-26T06:06:53.987Z,7.28
2016-12-26T06:07:35.251Z,7.4
2016-12-26T06:08:17.444Z,7.28
2016-12-26T06:08:58.463Z,7.25
2016-12-26T06:09:38.961Z,7.29
2016-12-26T06:10:20.219Z,7.28
2016-12-26T06:11:00.705Z,7.25
2016-12-26T06:11:41.831Z,7.25
2016-12-26T06:12:22.978Z,7.24
2016-12-26T06:13:04.990Z,7.31
2016-12-26T06:13:45.416Z,7.25
2016-12-26T06:14:25.910Z,7.38
2016-12-26T06:15:06.381Z,7.35
2016-12-26T06:15:47.808Z,7.25
2016-12-26T06:16:30.945Z,7.29
2016-12-26T06:17:12.238Z,7.31
2016-12-26T06:17:53.370Z,7.24
2016-12-26T06:18:33.859Z,7.23
2016-12-26T06:19:14.301Z,7.24
2016-12-26T06:19:56.341Z,7.32
2016-12-26T06:20:37.352Z,7.31
2016-12-26T06:21:17.845Z,7.28
2016-12-26T06:21:58.335Z,7.24
2016-12-26T06:22:39.330Z,7.23
2016-12-26T06:23:19.803Z,7.25
2016-12-26T06:24:00.294Z,7.33
2016-12-26T06:24:41.730Z,7.31
2016-12-26T06:25:22.237Z,7.25
2016-12-26T06:26:03.715Z,7.28
2016-12-26T06:26:44.705Z,7.33
2016-12-26T06:27:25.183Z,7.28
2016-12-26T06:28:07.131Z,7.24
2016-12-26T06:28:48.975Z,7.23
2016-12-26T06:29:30.150Z,7.23
2016-12-26T06:31:46.706Z,7.25
2016-12-26T06:32:35.183Z,7.25
2016-12-26T06:33:22.946Z,7.24
2016-12-26T06:34:11.396Z,7.28
2016-12-26T06:34:59.764Z,7.28
2016-12-26T06:35:48.744Z,7.28
2016-12-26T06:36:37.239Z,7.29
2016-12-26T06:37:25.914Z,7.21
2016-12-26T06:38:14.841Z,7.11
2016-12-26T06:39:03.759Z,7.11
2016-12-26T06:39:51.998Z,7.17
2016-12-26T06:40:41.091Z,7.13
2016-12-26T06:41:29.532Z,7.14
2016-12-26T06:42:18.298Z,7.14
2016-12-26T06:43:06.741Z,7.21
2016-12-26T06:43:55.237Z,7.11
2016-12-26T06:44:44.072Z,7.15
2016-12-26T06:45:32.751Z,7.11
2016-12-26T06:46:21.673Z,7.15
2016-12-26T06:47:09.776Z,7.13
2016-12-26T06:47:58.456Z,7.18
2016-12-26T06:48:47.397Z,7.17
2016-12-26T06:49:36.197Z,7.14
2016-12-26T06:50:24.611Z,7.11
2016-12-26T06:51:13.236Z,7.18
2016-12-26T06:52:01.774Z,7.14
2016-12-26T06:52:50.464Z,7.1
2016-12-26T06:53:39.062Z,7.15
2016-12-26T06:54:25.398Z,7.18
2016-12-26T06:55:05.811Z,7.14
2016-12-26T06:55:46.296Z,7.13
2016-12-26T06:56:26.768Z,7.17
2016-12-26T06:57:07.240Z,7.1
2016-12-26T06:57:48.481Z,7.18
2016-12-26T06:58:28.962Z,7.23
2016-12-26T06:59:10.338Z,7.25
2016-12-26T06:59:51.569Z,7.23
2016-12-26T07:00:33.790Z,7.25
2016-12-26T07:01:15.116Z,7.28
2016-12-26T07:01:57.086Z,7.28
2016-12-26T07:02:37.560Z,7.24
2016-12-26T07:03:18.573Z,7.33
2016-12-26T07:03:59.965Z,7.24
2016-12-26T07:04:41.342Z,7.25
2016-12-26T07:05:22.350Z,7.28
2016-12-26T07:06:02.820Z,7.29
2016-12-26T07:06:43.340Z,7.2
2016-12-26T07:07:23.798Z,7.25
2016-12-26T07:08:04.272Z,7.25
2016-12-26T07:08:44.703Z,7.25
2016-12-26T07:09:25.260Z,7.25
2016-12-26T07:10:06.706Z,7.25
2016-12-26T07:10:47.181Z,7.24
2016-12-26T07:11:27.648Z,7.32
2016-12-26T07:12:08.121Z,7.33
2016-12-26T07:12:48.613Z,7.35
2016-12-26T07:13:29.974Z,7.24
2016-12-26T07:14:11.241Z,7.28
2016-12-26T07:14:51.763Z,7.32
2016-12-26T07:15:32.238Z,7.24
2016-12-26T07:16:12.753Z,7.32
2016-12-26T07:16:55.121Z,7.28
2016-12-26T07:18:46.676Z,7.29
2016-12-26T07:19:35.213Z,7.23
2016-12-26T07:20:23.525Z,7.32
2016-12-26T07:21:12.885Z,7.28
2016-12-26T07:22:01.133Z,7.23
2016-12-26T07:22:49.862Z,7.29
2016-12-26T07:23:38.635Z,7.25
2016-12-26T07:24:27.979Z,7.29
2016-12-26T07:25:16.437Z,7.28
2016-12-26T07:26:04.671Z,7.25
2016-12-26T07:26:53.502Z,7.24
2016-12-26T07:27:42.568Z,7.25
2016-12-26T07:28:30.927Z,7.23
2016-12-26T07:29:19.572Z,7.1
2016-12-26T07:30:08.196Z,7.18
2016-12-26T07:30:57.035Z,7.13
2016-12-26T07:31:45.734Z,7.1
2016-12-26T07:32:34.465Z,7.14
2016-12-26T07:33:22.965Z,7.14
2016-12-26T07:34:11.831Z,7.11
2016-12-26T07:35:00.186Z,6.99
2016-12-26T07:35:48.940Z,6.97
2016-12-26T07:36:37.606Z,7.02
2016-12-26T07:52:40.133Z,6.77
2016-12-26T07:53:28.729Z,6.74
2016-12-26T07:54:17.210Z,6.69
2016-12-26T07:55:06.507Z,6.72
2016-12-26T07:55:54.627Z,6.62
2016-12-26T07:56:43.504Z,6.67
2016-12-26T07:57:32.454Z,6.7
2016-12-26T07:58:19.487Z,6.57
2016-12-26T07:59:08.328Z,6.54
2016-12-26T07:59:56.548Z,6.52
2016-12-26T08:00:45.529Z,6.51
2016-12-26T08:01:33.793Z,6.52
2016-12-26T08:02:22.588Z,6.51
2016-12-26T08:03:11.002Z,6.51
2016-12-26T08:04:00.043Z,6.56
2016-12-26T08:04:48.936Z,6.48
2016-12-26T08:05:37.879Z,6.45
2016-12-26T08:06:25.980Z,6.46
2016-12-26T08:07:15.011Z,6.46
2016-12-26T08:08:03.890Z,6.48
2016-12-26T08:08:52.217Z,6.44
2016-12-26T08:09:40.711Z,6.48
2016-12-26T08:10:29.896Z,6.46
2016-12-26T08:11:18.468Z,6.49
2016-12-26T08:12:06.797Z,6.46
2016-12-26T08:12:55.608Z,6.52
2016-12-26T08:13:44.100Z,6.54
2016-12-26T08:14:33.004Z,6.54
2016-12-26T08:15:22.018Z,6.56
2016-12-26T08:16:08.111Z,6.51
2016-12-26T08:16:49.814Z,6.51
2016-12-26T08:17:30.282Z,6.51
2016-12-26T08:18:11.342Z,6.51
2016-12-26T08:18:51.805Z,6.51
2016-12-26T08:20:42.775Z,6.59
2016-12-26T08:21:31.534Z,6.52
2016-12-26T08:22:19.482Z,6.57
2016-12-26T08:23:08.219Z,6.52
2016-12-26T08:23:57.056Z,6.51
2016-12-26T08:24:46.483Z,6.49
2016-12-26T08:25:34.805Z,6.52
2016-12-26T08:26:23.803Z,6.51
2016-12-26T08:28:45.171Z,6.51
2016-12-26T08:29:33.779Z,6.52
2016-12-26T08:30:22.606Z,6.54
2016-12-26T08:33:47.216Z,6.49
2016-12-26T08:34:35.570Z,6.56
2016-12-26T08:35:24.144Z,6.52
2016-12-26T08:36:12.907Z,6.59
2016-12-26T08:37:00.357Z,6.54
2016-12-26T08:37:49.195Z,6.54
2016-12-26T08:38:38.133Z,6.51
2016-12-26T08:39:26.493Z,6.54
2016-12-26T08:40:15.602Z,6.57
2016-12-26T08:41:03.628Z,6.59
2016-12-26T08:41:52.526Z,6.57
2016-12-26T08:42:41.117Z,6.59
2016-12-26T08:43:30.061Z,6.54
2016-12-26T08:44:18.531Z,6.51
2016-12-26T08:45:07.496Z,6.56
2016-12-26T08:45:56.426Z,6.57
2016-12-26T08:46:44.674Z,6.59
2016-12-26T08:47:33.194Z,6.56
2016-12-26T08:48:22.427Z,6.59
2016-12-26T08:53:52.419Z,6.7
2016-12-26T08:55:49.228Z,6.82
2016-12-26T08:56:38.002Z,6.79
2016-12-26T08:57:26.662Z,6.84
2016-12-26T08:58:15.456Z,6.84
2016-12-26T08:59:04.345Z,6.93
2016-12-26T08:59:53.038Z,6.89
2016-12-26T09:00:41.353Z,6.88
2016-12-26T09:01:30.038Z,7
2016-12-26T09:02:18.884Z,7.02
2016-12-26T09:03:07.479Z,7.03
2016-12-26T09:03:56.260Z,7.14
2016-12-26T09:04:44.617Z,7.21
2016-12-26T09:05:33.273Z,7.28
2016-12-26T09:06:21.928Z,7.36
2016-12-26T09:07:10.550Z,7.36
2016-12-26T09:07:59.293Z,7.48
2016-12-26T09:08:48.176Z,7.42
2016-12-26T09:09:36.650Z,7.48
2016-12-26T09:10:25.189Z,7.47
2016-12-26T09:14:30.630Z,7.39
2016-12-26T09:15:19.319Z,7.25
2016-12-26T09:16:08.299Z,7.29
2016-12-26T09:16:56.831Z,7.28
2016-12-26T09:17:45.871Z,7.28
2016-12-26T09:18:34.613Z,7.24
2016-12-26T09:19:23.179Z,7.2
2016-12-26T09:20:11.814Z,7.25
2016-12-26T09:21:00.187Z,7.28
2016-12-26T09:21:49.245Z,7.28
2016-12-26T09:22:37.644Z,7.24
2016-12-26T09:23:26.361Z,7.32
2016-12-26T09:24:14.963Z,7.35
2016-12-26T09:25:03.196Z,7.4
2016-12-26T09:25:51.859Z,7.4
2016-12-26T09:26:40.525Z,7.38
2016-12-26T09:27:29.058Z,7.35
2016-12-26T09:28:17.963Z,7.35
2016-12-26T09:29:06.204Z,7.42
2016-12-26T09:29:55.145Z,7.39
2016-12-26T09:30:44.388Z,7.33
2016-12-26T09:31:32.943Z,7.32
2016-12-26T09:32:21.890Z,7.33
2016-12-26T09:33:10.131Z,7.25
2016-12-26T09:33:59.195Z,7.28
2016-12-26T09:34:47.808Z,7.28
2016-12-26T09:35:36.157Z,7.29
2016-12-26T09:36:24.769Z,7.24
2016-12-26T09:37:13.412Z,7.25
2016-12-26T09:38:02.406Z,7.28
2016-12-26T09:38:50.695Z,7.23
2016-12-26T09:42:16.508Z,7.28
2016-12-26T09:43:05.356Z,7.28
2016-12-26T09:43:53.908Z,7.28
2016-12-26T09:44:43.238Z,7.28
2016-12-26T09:45:31.717Z,7.25
2016-12-26T09:46:20.252Z,7.23
2016-12-26T09:47:08.914Z,7.32
2016-12-26T09:47:57.809Z,7.35
2016-12-26T09:48:46.386Z,7.32
2016-12-26T09:49:35.196Z,7.4
2016-12-26T09:50:23.748Z,7.4
2016-12-26T09:51:12.475Z,7.4
2016-12-26T09:52:01.258Z,7.36
2016-12-26T09:52:50.214Z,7.4
2016-12-26T09:53:38.434Z,7.39
2016-12-26T09:54:27.660Z,7.42
2016-12-26T09:55:15.873Z,7.39
2016-12-26T09:56:04.382Z,7.47
2016-12-26T09:56:53.635Z,7.45
2016-12-26T09:57:41.957Z,7.42
2016-12-26T09:58:30.766Z,7.5
2016-12-26T09:59:19.377Z,7.63
2016-12-26T10:00:07.907Z,7.63
2016-12-26T10:00:56.555Z,7.73
2016-12-26T10:01:45.609Z,7.7
2016-12-26T10:02:34.150Z,7.66
2016-12-26T10:03:22.915Z,7.75
2016-12-26T10:04:18.390Z,7.77
2016-12-26T10:06:40.121Z,7.73
2016-12-26T10:07:28.923Z,7.79
2016-12-26T10:08:18.132Z,7.85
2016-12-26T10:09:06.290Z,7.83
2016-12-26T10:09:55.071Z,7.79
2016-12-26T10:10:43.782Z,7.8
2016-12-26T10:11:32.717Z,7.82
2016-12-26T10:12:21.600Z,7.85
2016-12-26T10:13:09.931Z,7.73
2016-12-26T10:13:58.868Z,7.72
2016-12-26T10:14:47.960Z,7.7
2016-12-26T10:15:36.452Z,7.66
2016-12-26T10:16:25.023Z,7.72
2016-12-26T10:17:13.123Z,7.69
2016-12-26T10:18:02.020Z,7.73
2016-12-26T10:18:50.518Z,7.72
2016-12-26T10:19:39.296Z,7.7
2016-12-26T10:20:27.731Z,7.69
2016-12-26T10:21:16.343Z,7.67
2016-12-26T10:22:05.171Z,7.73
2016-12-26T10:22:54.045Z,7.76
2016-12-26T10:23:42.618Z,7.7
2016-12-26T10:24:31.648Z,7.77
2016-12-26T10:25:20.462Z,7.85
2016-12-26T10:26:08.590Z,7.83
2016-12-26T10:26:57.443Z,7.91
2016-12-26T10:27:46.084Z,7.97
2016-12-26T10:28:34.667Z,7.87
2016-12-26T10:29:23.764Z,7.97
2016-12-26T10:30:12.088Z,7.93
2016-12-26T10:31:00.692Z,8.01
2016-12-26T10:31:49.683Z,7.82
2016-12-26T10:32:38.007Z,7.38
2016-12-26T10:33:26.866Z,7
2016-12-26T10:34:15.743Z,6.62
2016-12-26T10:35:04.243Z,6.44
2016-12-26T10:35:53.116Z,6.28
2016-12-26T10:36:42.452Z,6.26
2016-12-26T10:37:31.015Z,6.24
2016-12-26T10:38:19.864Z,6.02
2016-12-26T10:39:08.474Z,6.05
2016-12-26T10:39:57.510Z,6.07
2016-12-26T10:40:46.253Z,6.04
2016-12-26T10:41:34.454Z,6.01
2016-12-26T10:42:23.208Z,5.9
2016-12-26T10:43:12.044Z,5.98
2016-12-26T10:44:00.976Z,5.87
2016-12-26T10:44:49.194Z,5.87